Time;durP1;ratioP1;P1;durP2;ratioP2;P2;SDS_P1;SDS_P2;PMS_P1;PMS_P2;Temp;Humidity;BMP_temperature;BMP_pressure;BME280_temperature;BME280_humidity;BME280_pressure;Samples;Min_cycle;Max_cycle;Signal;HPM_P1;HPM_P2
2023/11/24 00:01:50;;;;;;;12.40;10.05;;;;;;;8.85;78.22;94286.56;4180115;28;20135;-70
2023/11/24 00:03:52;;;;;;;12.55;9.38;;;;;;;8.84;78.52;94290.19;4194439;28;20426;-68
2023/11/24 00:05:56;;;;;;;14.77;9.40;;;;;;;8.77;77.62;94279.53;4189982;28;20074;-69
2023/11/24 00:07:58;;;;;;;12.60;9.10;;;;;;;8.64;78.15;94271.31;4190784;28;20045;-68
2023/11/24 00:10:00;;;;;;;13.30;9.30;;;;;;;8.59;78.87;94271.78;4188468;28;20082;-68
2023/11/24 00:12:02;;;;;;;15.45;9.77;;;;;;;8.65;78.74;94274.75;4188906;28;20472;-67
2023/11/24 00:14:04;;;;;;;12.38;8.73;;;;;;;8.71;78.76;94269.72;4186762;28;20155;-67
2023/11/24 00:16:09;;;;;;;15.35;9.50;;;;;;;8.71;79.10;94255.84;4148172;28;20050;-67
2023/11/24 00:18:12;;;;;;;12.98;9.38;;;;;;;8.69;78.79;94258.63;4197154;28;20487;-67
2023/11/24 00:20:14;;;;;;;15.48;10.15;;;;;;;8.71;78.37;94250.59;4197962;28;20102;-66
2023/11/24 00:22:16;;;;;;;13.52;9.82;;;;;;;8.74;78.86;94256.34;4179893;28;20506;-68
2023/11/24 00:24:18;;;;;;;15.25;9.75;;;;;;;8.80;78.81;94244.47;4189845;28;20063;-69
2023/11/24 00:26:20;;;;;;;14.60;9.63;;;;;;;8.79;78.56;94238.38;4194032;28;20076;-68
2023/11/24 00:28:23;;;;;;;11.70;9.52;;;;;;;8.74;77.63;94224.19;4197831;28;20431;-68
2023/11/24 00:30:25;;;;;;;20.95;10.13;;;;;;;8.74;78.28;94230.22;4194495;28;20086;-67
2023/11/24 00:32:27;;;;;;;13.57;9.68;;;;;;;8.77;78.32;94222.06;4191268;28;20370;-69
2023/11/24 00:34:30;;;;;;;14.30;10.05;;;;;;;8.73;78.44;94225.16;4197527;28;20059;-68
2023/11/24 00:36:32;;;;;;;13.93;10.10;;;;;;;8.65;77.97;94227.72;4197058;28;20508;-68
2023/11/24 00:38:35;;;;;;;14.40;9.68;;;;;;;8.61;78.34;94224.66;4186113;28;20048;-65
2023/11/24 00:40:40;;;;;;;12.73;10.25;;;;;;;8.58;78.35;94220.56;4190233;28;20057;-66
2023/11/24 00:42:43;;;;;;;16.25;10.45;;;;;;;8.51;78.81;94210.91;4196826;28;20052;-66
2023/11/24 00:44:44;;;;;;;14.48;10.60;;;;;;;8.48;79.43;94209.44;4179975;28;20473;-68
2023/11/24 00:46:47;;;;;;;16.77;10.73;;;;;;;8.44;79.20;94213.31;4183322;28;20124;-68
2023/11/24 00:48:48;;;;;;;13.88;11.32;;;;;;;8.45;79.63;94214.94;4193103;28;20057;-68
2023/11/24 00:50:50;;;;;;;16.13;10.93;;;;;;;8.48;79.38;94208.63;4173629;28;20049;-66
2023/11/24 00:52:52;;;;;;;14.07;10.65;;;;;;;8.50;79.91;94206.66;4182786;28;20088;-66
2023/11/24 00:54:55;;;;;;;15.45;10.48;;;;;;;8.54;79.59;94203.56;4184572;28;20516;-71
2023/11/24 00:56:57;;;;;;;17.92;11.68;;;;;;;8.42;79.01;94204.03;4168640;28;20462;-70
2023/11/24 00:58:58;;;;;;;16.67;11.75;;;;;;;8.42;79.63;94193.59;4190251;28;20044;-68
2023/11/24 01:01:03;;;;;;;15.98;11.68;;;;;;;8.31;80.05;94194.66;4182220;28;20053;-67
2023/11/24 01:03:05;;;;;;;16.30;11.65;;;;;;;8.31;79.92;94192.03;4198915;28;20044;-68
2023/11/24 01:05:09;;;;;;;18.52;12.43;;;;;;;8.17;80.47;94178.63;4183333;28;20504;-69
2023/11/24 01:07:11;;;;;;;16.13;11.98;;;;;;;8.18;80.75;94176.84;4191848;28;20542;-68
2023/11/24 01:09:13;;;;;;;15.98;12.15;;;;;;;8.24;81.26;94186.66;4186119;28;20057;-68
2023/11/24 01:11:15;;;;;;;17.17;12.25;;;;;;;8.29;80.45;94173.94;4166884;28;20111;-69
2023/11/24 01:13:16;;;;;;;20.38;11.93;;;;;;;8.36;80.41;94174.91;4192577;28;20422;-68
2023/11/24 01:15:18;;;;;;;19.48;13.68;;;;;;;8.25;80.01;94159.56;4190211;28;20072;-68
2023/11/24 01:17:20;;;;;;;19.63;12.10;;;;;;;8.29;80.24;94153.06;4194999;28;20106;-68
2023/11/24 01:19:23;;;;;;;15.77;12.75;;;;;;;8.35;80.42;94154.22;4186761;28;20060;-69
2023/11/24 01:21:25;;;;;;;14.57;11.43;;;;;;;8.38;79.86;94154.69;4194962;28;20076;-68
2023/11/24 01:23:28;;;;;;;16.90;11.40;;;;;;;8.44;80.05;94142.03;4179544;28;20080;-68
2023/11/24 01:25:29;;;;;;;15.85;11.20;;;;;;;8.49;80.18;94132.72;4192883;28;20410;-68
2023/11/24 01:27:32;;;;;;;15.63;12.00;;;;;;;8.46;79.70;94127.84;4195217;28;20048;-71
2023/11/24 01:29:34;;;;;;;16.85;11.63;;;;;;;8.38;79.90;94115.56;4193321;28;20457;-68
2023/11/24 01:31:35;;;;;;;16.58;11.20;;;;;;;8.41;79.89;94124.91;4159117;28;20464;-70
2023/11/24 01:33:38;;;;;;;15.05;11.93;;;;;;;8.48;80.01;94119.88;4193033;28;20056;-68
2023/11/24 01:35:41;;;;;;;16.25;11.45;;;;;;;8.51;79.81;94115.13;4193239;28;20127;-68
2023/11/24 01:37:43;;;;;;;19.13;11.63;;;;;;;8.52;79.63;94114.16;4179170;28;20045;-68
2023/11/24 01:39:45;;;;;;;15.20;12.07;;;;;;;8.46;79.49;94117.41;4196130;28;20052;-68
2023/11/24 01:41:47;;;;;;;17.25;11.10;;;;;;;8.48;79.63;94115.44;4194121;28;20083;-68
2023/11/24 01:43:58;;;;;;;17.30;11.07;;;;;;;8.49;79.90;94100.59;4193093;28;20124;-69
2023/11/24 01:46:00;;;;;;;14.82;10.95;;;;;;;8.55;79.54;94100.78;4188493;28;20048;-68
2023/11/24 01:48:02;;;;;;;17.25;11.85;;;;;;;8.56;79.23;94091.13;4188092;28;20077;-67
2023/11/24 01:50:05;;;;;;;16.35;11.82;;;;;;;8.55;79.25;94094.75;4187824;28;20103;-69
2023/11/24 01:52:07;;;;;;;16.00;11.95;;;;;;;8.53;79.40;94087.06;4193647;28;20123;-68
2023/11/24 01:54:09;;;;;;;15.43;11.73;;;;;;;8.15;79.67;94086.66;4190918;28;20094;-67
2023/11/24 01:56:12;;;;;;;15.32;11.35;;;;;;;8.14;79.92;94085.00;4178262;28;20499;-68
2023/11/24 01:58:16;;;;;;;16.35;11.60;;;;;;;8.17;80.00;94079.47;4183956;28;20416;-68
2023/11/24 02:00:19;;;;;;;14.93;11.30;;;;;;;8.19;80.81;94074.91;4154893;28;20042;-67
2023/11/24 02:02:21;;;;;;;16.63;11.70;;;;;;;8.15;80.17;94071.00;4191107;28;20503;-69
2023/11/24 02:04:23;;;;;;;16.38;12.15;;;;;;;7.64;81.65;94075.38;4195971;28;20056;-69
2023/11/24 02:06:25;;;;;;;18.10;12.65;;;;;;;7.39;82.82;94072.63;4161763;28;20045;-68
2023/11/24 02:08:27;;;;;;;23.92;13.38;;;;;;;7.50;83.38;94062.94;4169454;28;20045;-71
2023/11/24 02:10:29;;;;;;;18.08;12.38;;;;;;;7.59;83.26;94061.97;4174555;28;20144;-68
2023/11/24 02:12:31;;;;;;;17.17;12.70;;;;;;;7.72;83.18;94056.34;4194300;28;20048;-68
2023/11/24 02:14:33;;;;;;;15.63;11.90;;;;;;;7.84;83.19;94057.69;4173673;28;20058;-68
2023/11/24 02:16:35;;;;;;;17.20;12.75;;;;;;;7.89;82.94;94057.22;4193260;28;20059;-67
2023/11/24 02:18:37;;;;;;;17.02;11.98;;;;;;;7.94;82.37;94065.41;4169118;28;20049;-67
2023/11/24 02:20:39;;;;;;;23.58;14.10;;;;;;;7.95;81.92;94041.75;4191751;28;20480;-67
2023/11/24 02:22:42;;;;;;;18.85;13.75;;;;;;;7.73;82.00;94035.31;4188309;28;20422;-68
2023/11/24 02:24:44;;;;;;;17.17;12.82;;;;;;;7.68;82.15;94034.16;4182245;28;20049;-67
2023/11/24 02:26:46;;;;;;;18.58;13.00;;;;;;;7.76;82.53;94023.75;4179303;28;20049;-68
2023/11/24 02:28:48;;;;;;;18.45;14.02;;;;;;;7.74;82.65;94021.34;4192854;28;20045;-69
2023/11/24 02:30:50;;;;;;;20.10;15.50;;;;;;;7.68;82.43;94018.50;4194747;28;20083;-69
2023/11/24 02:32:52;;;;;;;21.95;16.25;;;;;;;7.69;81.98;94010.53;4194691;28;20127;-67
2023/11/24 02:34:54;;;;;;;28.25;18.05;;;;;;;7.52;82.36;94011.47;4194970;28;20053;-69
2023/11/24 02:36:56;;;;;;;21.02;14.70;;;;;;;7.50;82.73;94005.59;4195951;28;20132;-68
2023/11/24 02:38:58;;;;;;;22.63;17.15;;;;;;;7.50;82.91;94002.97;4170505;28;20466;-68
2023/11/24 02:41:00;;;;;;;20.42;16.20;;;;;;;7.61;83.77;93994.88;4170029;28;20052;-68
2023/11/24 02:43:02;;;;;;;20.92;15.07;;;;;;;7.73;83.40;93992.81;4178156;28;20047;-70
2023/11/24 02:45:04;;;;;;;19.10;13.98;;;;;;;7.82;82.82;93998.84;4191490;28;20492;-68
2023/11/24 02:47:06;;;;;;;21.10;14.80;;;;;;;7.89;82.85;93990.22;4194646;28;20049;-68
2023/11/24 02:49:08;;;;;;;22.23;14.73;;;;;;;7.87;82.44;93992.19;4195182;28;20083;-68
2023/11/24 02:51:11;;;;;;;18.88;14.13;;;;;;;7.94;82.16;93985.34;4195456;28;20048;-67
2023/11/24 02:53:13;;;;;;;22.38;15.77;;;;;;;7.86;81.52;93984.53;4194997;28;20487;-67
2023/11/24 02:55:15;;;;;;;24.13;16.50;;;;;;;7.75;82.19;93981.22;4190457;28;20565;-67
2023/11/24 02:57:18;;;;;;;22.98;16.90;;;;;;;7.76;82.23;93977.63;4173469;28;20064;-68
2023/11/24 02:59:20;;;;;;;22.50;16.10;;;;;;;7.81;83.02;93987.63;4189884;28;20418;-67
2023/11/24 03:01:22;;;;;;;26.92;17.45;;;;;;;7.87;82.33;93991.34;4189300;28;20107;-67
2023/11/24 03:03:26;;;;;;;24.08;17.30;;;;;;;7.87;82.58;93981.75;4195962;28;20045;-68
2023/11/24 03:05:27;;;;;;;;;;;;;;;7.93;82.49;93967.25;4195087;28;20152;-68
2023/11/24 03:07:29;;;;;;;29.23;19.02;;;;;;;7.99;81.85;93974.44;4190148;28;19920;-69
2023/11/24 03:09:32;;;;;;;25.15;17.70;;;;;;;8.05;81.95;93963.38;4190880;28;20048;-69
2023/11/24 03:11:34;;;;;;;27.48;16.90;;;;;;;8.09;82.22;93976.91;4188812;28;20064;-68
2023/11/24 03:13:35;;;;;;;27.45;18.15;;;;;;;8.11;81.66;93974.91;4192667;28;20080;-70
2023/11/24 03:15:37;;;;;;;29.48;19.00;;;;;;;8.12;81.75;93964.34;4163728;28;20095;-69
2023/11/24 03:17:39;;;;;;;26.85;18.60;;;;;;;8.12;81.82;93953.91;4185720;28;20053;-68
2023/11/24 03:19:41;;;;;;;29.98;19.05;;;;;;;8.12;81.47;93959.13;4194705;28;20127;-66
2023/11/24 03:21:44;;;;;;;33.10;22.35;;;;;;;8.19;81.97;93952.28;4194603;28;20080;-69
2023/11/24 03:23:46;;;;;;;34.25;21.80;;;;;;;8.24;81.47;93943.13;4198860;28;20053;-67
2023/11/24 03:25:47;;;;;;;30.65;21.50;;;;;;;8.29;81.72;93938.25;4197701;28;20049;-66
2023/11/24 03:27:49;;;;;;;31.65;21.48;;;;;;;8.31;81.91;93926.66;4187014;28;20052;-68
2023/11/24 03:29:51;;;;;;;39.75;21.60;;;;;;;8.26;82.06;93925.53;4180887;28;20498;-68
2023/11/24 03:31:53;;;;;;;34.20;22.52;;;;;;;8.25;81.98;93916.88;4188250;28;20056;-69
2023/11/24 03:33:54;;;;;;;30.85;21.20;;;;;;;8.30;81.32;93917.22;4197976;28;20394;-67
2023/11/24 03:35:56;;;;;;;26.95;19.90;;;;;;;8.34;81.64;93907.25;4194837;28;20072;-68
2023/11/24 03:37:58;;;;;;;30.25;21.00;;;;;;;8.41;82.02;93903.06;4168138;28;20062;-68
2023/11/24 03:40:00;;;;;;;34.40;22.45;;;;;;;8.42;81.79;93896.03;4187885;28;20053;-67
2023/11/24 03:42:02;;;;;;;31.40;21.63;;;;;;;8.43;81.79;93900.25;4177915;28;20061;-68
2023/11/24 03:44:04;;;;;;;30.33;20.48;;;;;;;8.45;81.71;93895.69;4185680;28;20521;-68
2023/11/24 03:46:06;;;;;;;31.27;21.80;;;;;;;8.45;81.39;93896.50;4184728;28;20490;-68
2023/11/24 03:48:08;;;;;;;32.92;22.45;;;;;;;8.46;81.65;93879.88;4187829;28;20053;-69
2023/11/24 03:50:10;;;;;;;33.53;22.42;;;;;;;8.45;81.68;93878.22;4195830;28;20071;-69
2023/11/24 03:52:12;;;;;;;32.38;22.30;;;;;;;8.46;81.88;93877.25;4185357;28;20045;-68
2023/11/24 03:54:14;;;;;;;36.92;24.42;;;;;;;8.45;81.59;93870.41;4193043;28;20509;-67
2023/11/24 03:56:17;;;;;;;35.65;24.48;;;;;;;8.36;81.53;93885.22;4194705;28;20156;-67
2023/11/24 03:58:19;;;;;;;36.20;24.13;;;;;;;8.36;82.51;93871.38;4185380;28;20124;-69
2023/11/24 04:00:21;;;;;;;36.65;23.40;;;;;;;8.40;81.87;93883.94;4191400;28;20045;-69
2023/11/24 04:02:23;;;;;;;31.90;23.33;;;;;;;8.48;82.30;93879.72;4187795;28;20503;-67
2023/11/24 04:04:25;;;;;;;34.10;22.73;;;;;;;8.52;82.08;93876.59;4195403;28;20140;-68
2023/11/24 04:06:27;;;;;;;31.45;21.95;;;;;;;8.56;82.17;93869.22;4188477;28;20457;-69
2023/11/24 04:08:29;;;;;;;32.50;23.52;;;;;;;8.58;82.09;93872.50;4189041;28;20045;-69
2023/11/24 04:10:31;;;;;;;36.20;25.08;;;;;;;8.60;81.62;93880.97;4163932;28;20412;-71
2023/11/24 04:12:33;;;;;;;35.10;22.92;;;;;;;8.59;81.89;93881.97;4196713;28;20562;-68
2023/11/24 04:14:35;;;;;;;34.60;23.45;;;;;;;8.57;81.64;93876.91;4197225;28;20060;-68
2023/11/24 04:16:37;;;;;;;36.20;23.70;;;;;;;8.52;81.91;93876.59;4196676;28;20045;-68
2023/11/24 04:18:39;;;;;;;35.60;24.38;;;;;;;8.49;81.76;93876.13;4197311;28;20445;-68
2023/11/24 04:20:40;;;;;;;36.70;25.00;;;;;;;8.53;82.17;93878.22;4174869;28;20437;-68
2023/11/24 04:22:42;;;;;;;35.75;23.05;;;;;;;8.58;82.10;93881.16;4190522;28;20126;-67
2023/11/24 04:24:44;;;;;;;37.15;24.77;;;;;;;8.61;81.48;93885.22;4179921;28;20055;-71
2023/11/24 04:26:46;;;;;;;32.45;23.63;;;;;;;8.61;82.05;93893.88;4188367;28;20364;-67
2023/11/24 04:28:47;;;;;;;35.35;24.95;;;;;;;8.65;82.54;93889.13;4177267;28;20056;-68
2023/11/24 04:30:49;;;;;;;40.03;24.75;;;;;;;8.66;81.73;93889.94;4183070;28;20455;-68
2023/11/24 04:32:51;;;;;;;35.75;24.80;;;;;;;8.55;81.37;93884.09;4188122;28;20169;-70
2023/11/24 04:34:53;;;;;;;36.83;25.10;;;;;;;8.55;82.47;93886.69;4179987;28;20052;-68
2023/11/24 04:36:56;;;;;;;37.20;24.08;;;;;;;8.57;81.64;93876.91;4196144;28;20482;-68
2023/11/24 04:38:58;;;;;;;42.85;25.98;;;;;;;8.59;81.94;93881.97;4162138;28;20464;-68
2023/11/24 04:41:01;;;;;;;36.58;25.88;;;;;;;8.64;82.10;93878.84;4195917;28;20056;-68
2023/11/24 04:43:03;;;;;;;35.30;25.45;;;;;;;8.67;82.26;93883.72;4196575;28;20075;-69
2023/11/24 04:45:06;;;;;;;33.85;22.92;;;;;;;8.68;81.81;93885.38;4177791;28;20065;-68
2023/11/24 04:47:10;;;;;;;37.40;24.80;;;;;;;8.69;81.36;93884.38;4196429;28;20045;-67
2023/11/24 04:49:11;;;;;;;35.30;24.27;;;;;;;8.69;82.23;93887.00;4197472;28;20529;-68
2023/11/24 04:51:13;;;;;;;36.42;25.52;;;;;;;8.73;82.10;93881.28;4196879;28;20064;-69
2023/11/24 04:53:15;;;;;;;37.65;24.50;;;;;;;8.80;81.53;93884.03;4196078;28;20051;-68
2023/11/24 04:55:17;;;;;;;33.53;23.10;;;;;;;8.83;81.39;93881.09;4196876;28;20051;-69
2023/11/24 04:57:19;;;;;;;30.98;23.13;;;;;;;8.86;80.81;93882.53;4178594;28;20071;-69
2023/11/24 04:59:21;;;;;;;34.75;24.48;;;;;;;8.85;80.90;93884.34;4197081;28;20059;-68
2023/11/24 05:01:23;;;;;;;33.03;23.65;;;;;;;8.83;81.00;93878.47;4195974;28;20048;-69
2023/11/24 05:03:28;;;;;;;34.05;23.85;;;;;;;8.83;81.14;93878.47;4182072;28;20041;-68
2023/11/24 05:05:30;;;;;;;29.17;22.08;;;;;;;8.86;81.26;93877.31;4197873;28;20056;-73
2023/11/24 05:07:32;;;;;;;32.50;23.50;;;;;;;8.86;81.17;93877.31;4178994;28;20088;-71
2023/11/24 05:09:35;;;;;;;30.80;21.55;;;;;;;8.84;80.81;93868.81;4197137;28;20080;-69
2023/11/24 05:11:38;;;;;;;31.27;23.67;;;;;;;8.87;81.03;93868.50;4195302;28;20064;-72
2023/11/24 05:13:40;;;;;;;33.30;23.40;;;;;;;8.82;80.98;93871.63;4178592;28;20049;-69
2023/11/24 05:15:42;;;;;;;30.33;22.92;;;;;;;8.81;81.17;93867.38;4177546;28;20053;-67
2023/11/24 05:17:43;;;;;;;30.95;22.88;;;;;;;8.82;81.43;93858.56;4196948;28;20509;-69
2023/11/24 05:19:45;;;;;;;31.80;22.55;;;;;;;8.88;81.17;93850.03;4197101;28;20052;-67
2023/11/24 05:21:47;;;;;;;35.83;22.75;;;;;;;8.89;81.39;93858.72;4178198;28;20053;-68
2023/11/24 05:23:49;;;;;;;32.28;23.25;;;;;;;8.85;81.69;93839.94;4179176;28;20053;-69
2023/11/24 05:25:51;;;;;;;30.95;21.42;;;;;;;8.85;81.02;93845.16;4168926;28;20447;-68
2023/11/24 05:27:53;;;;;;;29.38;22.33;;;;;;;8.81;81.31;93823.78;4179109;28;20045;-68
2023/11/24 05:29:55;;;;;;;33.65;22.30;;;;;;;8.77;81.66;93843.38;4172077;28;20084;-71
2023/11/24 05:31:57;;;;;;;28.10;22.95;;;;;;;8.75;81.25;93824.47;4187591;28;20053;-69
2023/11/24 05:33:59;;;;;;;31.35;23.15;;;;;;;8.72;82.01;93835.25;4190569;28;20113;-71
2023/11/24 05:36:06;;;;;;;29.65;22.48;;;;;;;8.75;81.91;93819.22;4191392;28;20047;-71
2023/11/24 05:38:08;;;;;;;31.15;21.92;;;;;;;8.80;81.65;93837.03;4188634;28;20049;-69
2023/11/24 05:40:12;;;;;;;32.17;22.27;;;;;;;8.64;81.46;93798.72;4189224;28;20045;-68
2023/11/24 05:42:15;;;;;;;28.90;22.30;;;;;;;8.64;81.77;93826.63;4192568;28;20076;-70
2023/11/24 05:44:18;;;;;;;27.10;21.33;;;;;;;8.59;81.92;93821.94;4194364;28;20051;-71
2023/11/24 05:46:20;;;;;;;25.98;20.92;;;;;;;8.59;81.73;93822.72;4186328;28;20047;-70
2023/11/24 05:48:22;;;;;;;26.10;20.40;;;;;;;8.60;82.77;93837.44;4190546;28;20051;-71
2023/11/24 05:50:24;;;;;;;27.02;20.83;;;;;;;8.53;82.17;93817.38;4179817;28;20052;-71
2023/11/24 05:52:25;;;;;;;25.88;20.90;;;;;;;8.32;82.90;93818.69;4171454;28;20051;-71
2023/11/24 05:54:27;;;;;;;25.50;20.25;;;;;;;8.39;83.56;93837.13;4192968;28;20053;-71
2023/11/24 05:56:29;;;;;;;25.90;20.40;;;;;;;8.49;83.43;93831.75;4187932;28;20047;-68
2023/11/24 05:58:32;;;;;;;27.00;20.80;;;;;;;8.60;83.06;93833.97;4196990;28;20128;-71
2023/11/24 06:00:34;;;;;;;26.77;21.07;;;;;;;8.70;83.25;93825.97;4174858;28;20095;-70
2023/11/24 06:02:36;;;;;;;24.85;20.85;;;;;;;8.81;83.34;93821.19;4196091;28;20631;-70
2023/11/24 06:04:38;;;;;;;25.75;19.95;;;;;;;8.92;82.46;93840.88;4190889;28;20540;-71
2023/11/24 06:06:42;;;;;;;25.00;19.80;;;;;;;9.00;82.19;93833.00;4193023;28;20509;-70
2023/11/24 06:08:44;;;;;;;27.88;20.10;;;;;;;9.04;81.17;93830.06;4192661;28;20044;-70
2023/11/24 06:10:50;;;;;;;28.05;20.42;;;;;;;9.11;80.97;93844.06;4196411;28;20101;-70
2023/11/24 06:12:52;;;;;;;25.67;19.27;;;;;;;9.16;81.17;93831.28;4195713;28;20122;-68
2023/11/24 06:14:54;;;;;;;27.58;20.35;;;;;;;9.10;80.88;93831.97;4191427;28;20056;-68
2023/11/24 06:16:56;;;;;;;29.77;20.08;;;;;;;9.14;81.04;93834.09;4190217;28;20047;-70
2023/11/24 06:18:58;;;;;;;32.13;19.33;;;;;;;9.18;80.30;93829.34;4193529;28;20114;-69
2023/11/24 06:21:04;;;;;;;24.83;19.77;;;;;;;9.24;80.76;93836.50;4188254;28;20102;-69
2023/11/24 06:23:06;;;;;;;26.17;19.35;;;;;;;9.30;80.21;93825.34;4192505;28;20132;-69
2023/11/24 06:25:10;;;;;;;24.83;19.17;;;;;;;9.34;79.94;93824.03;4192268;28;20410;-69
2023/11/24 06:27:16;;;;;;;27.38;17.42;;;;;;;9.39;80.48;93820.88;4195226;28;20040;-70
2023/11/24 06:29:18;;;;;;;24.63;18.88;;;;;;;9.47;79.90;93818.22;4195668;28;20474;-68
2023/11/24 06:31:19;;;;;;;24.60;18.05;;;;;;;9.53;79.74;93817.53;4190554;28;20501;-69
2023/11/24 06:33:21;;;;;;;27.77;18.35;;;;;;;9.50;79.20;93815.25;4192095;28;20044;-71
2023/11/24 06:35:24;;;;;;;29.13;18.65;;;;;;;9.53;79.43;93821.94;4191134;28;20471;-69
2023/11/24 06:37:26;;;;;;;22.45;18.17;;;;;;;9.56;79.63;93821.59;4172319;28;20053;-70
2023/11/24 06:39:28;;;;;;;29.92;19.45;;;;;;;9.47;79.17;93814.81;4188421;28;20507;-72
2023/11/24 06:41:30;;;;;;;24.83;19.38;;;;;;;9.48;79.29;93809.38;4190826;28;20060;-69
2023/11/24 06:43:31;;;;;;;29.08;21.15;;;;;;;9.52;79.18;93815.88;4177474;28;20079;-71
2023/11/24 06:45:34;;;;;;;29.10;20.95;;;;;;;9.29;78.73;93805.44;4191157;28;20127;-71
2023/11/24 06:47:42;;;;;;;29.80;21.90;;;;;;;9.29;80.08;93787.16;4195804;28;20045;-68
2023/11/24 06:49:44;;;;;;;30.50;21.70;;;;;;;9.34;79.99;93799.69;4190876;28;20504;-70
2023/11/24 06:51:48;;;;;;;30.75;22.88;;;;;;;9.40;80.04;93797.19;4188999;28;20048;-69
2023/11/24 06:53:50;;;;;;;39.92;24.67;;;;;;;9.43;80.02;93791.59;4194118;28;20493;-71
2023/11/24 06:55:52;;;;;;;32.47;22.50;;;;;;;9.51;80.18;93789.94;4194902;28;20131;-71
2023/11/24 06:57:54;;;;;;;33.85;22.92;;;;;;;9.42;79.84;93789.16;4174792;28;20049;-70
2023/11/24 06:59:56;;;;;;;34.17;21.38;;;;;;;9.42;79.90;93782.16;4169275;28;20491;-71
2023/11/24 07:01:58;;;;;;;28.88;22.23;;;;;;;9.49;80.38;93773.63;4195129;28;20106;-70
2023/11/24 07:03:59;;;;;;;30.77;21.83;;;;;;;9.56;80.35;93772.72;4202616;28;20542;-68
2023/11/24 07:06:04;;;;;;;40.55;27.20;;;;;;;9.63;80.31;93767.59;4194339;28;20052;-70
2023/11/24 07:08:06;;;;;;;33.83;23.25;;;;;;;9.62;79.18;93771.22;4190400;28;20045;-70
2023/11/24 07:10:11;;;;;;;34.63;22.15;;;;;;;9.55;79.72;93770.28;4190088;28;20495;-69
2023/11/24 07:12:17;;;;;;;37.85;25.02;;;;;;;9.54;79.99;93760.81;4194035;28;20054;-71
2023/11/24 07:14:20;;;;;;;32.38;23.25;;;;;;;9.62;79.92;93768.59;4181292;28;20083;-71
2023/11/24 07:16:22;;;;;;;34.92;24.35;;;;;;;9.63;79.62;93759.75;4191892;28;20087;-71
2023/11/24 07:18:25;;;;;;;32.78;24.65;;;;;;;9.57;79.74;93758.69;4186820;28;20048;-69
2023/11/24 07:20:27;;;;;;;42.80;25.40;;;;;;;9.47;80.12;93755.47;4185071;28;20049;-69
2023/11/24 07:22:31;;;;;;;;;;;;;;;9.50;80.65;93749.09;4178760;28;20159;-69
2023/11/24 07:24:32;;;;;;;42.63;27.10;;;;;;;9.31;80.55;93751.16;4192600;28;19966;-70
2023/11/24 07:26:34;;;;;;;37.60;26.17;;;;;;;9.31;80.94;93753.78;4187103;28;20090;-71
2023/11/24 07:28:38;;;;;;;38.35;27.23;;;;;;;9.23;80.58;93756.47;4191022;28;20060;-70
2023/11/24 07:30:42;;;;;;;40.13;26.60;;;;;;;9.08;81.28;93750.34;4189469;28;20063;-69
2023/11/24 07:32:44;;;;;;;44.08;27.35;;;;;;;9.10;82.07;93758.81;4196135;28;20524;-71
2023/11/24 07:34:46;;;;;;;42.40;26.88;;;;;;;9.25;82.45;93761.50;4193243;28;20461;-70
2023/11/24 07:36:48;;;;;;;43.97;28.65;;;;;;;9.31;81.39;93745.13;4174953;28;20049;-70
2023/11/24 07:38:50;;;;;;;44.65;25.90;;;;;;;9.45;82.11;93744.38;4183863;28;20052;-70
2023/11/24 07:40:51;;;;;;;42.38;26.10;;;;;;;9.56;81.49;93757.03;4189298;28;20048;-69
2023/11/24 07:42:53;;;;;;;36.55;24.95;;;;;;;9.69;80.78;93756.44;4187129;28;20052;-70
2023/11/24 07:44:55;;;;;;;36.20;25.33;;;;;;;9.79;80.50;93756.22;4190000;28;20491;-70
2023/11/24 07:46:57;;;;;;;41.28;26.00;;;;;;;9.89;79.77;93759.34;4189470;28;20098;-71
2023/11/24 07:48:59;;;;;;;39.05;25.60;;;;;;;9.95;79.07;93761.25;4196637;28;20049;-71
2023/11/24 07:51:02;;;;;;;41.88;24.90;;;;;;;10.01;79.33;93757.94;4181321;28;20217;-71
2023/11/24 07:53:04;;;;;;;32.17;23.65;;;;;;;10.03;78.70;93755.97;4196589;28;20052;-69
2023/11/24 07:55:06;;;;;;;37.70;25.08;;;;;;;10.07;78.07;93745.97;4198656;28;20076;-70
2023/11/24 07:57:08;;;;;;;32.72;24.48;;;;;;;10.15;78.33;93756.34;4196571;28;20044;-70
2023/11/24 07:59:11;;;;;;;37.78;25.13;;;;;;;10.23;78.08;93744.97;4198067;28;20063;-71
2023/11/24 08:01:13;;;;;;;36.53;25.83;;;;;;;10.32;77.72;93732.63;4196567;28;20045;-70
2023/11/24 08:03:17;;;;;;;39.38;25.90;;;;;;;10.44;77.37;93729.38;4202688;28;20284;-69
2023/11/24 08:05:20;;;;;;;29.65;22.45;;;;;;;10.54;77.06;93728.28;4188784;28;20483;-70
2023/11/24 08:07:22;;;;;;;37.87;24.23;;;;;;;10.63;76.86;93741.09;4195758;28;20577;-71
2023/11/24 08:09:25;;;;;;;36.58;24.33;;;;;;;10.71;76.37;93729.72;4194065;28;20560;-70
2023/11/24 08:11:27;;;;;;;33.83;23.17;;;;;;;10.74;75.80;93724.09;4189311;28;20128;-70
2023/11/24 08:13:29;;;;;;;37.85;23.40;;;;;;;10.77;75.48;93736.00;4198760;28;20048;-69
2023/11/24 08:15:31;;;;;;;35.25;21.80;;;;;;;10.81;75.78;93717.13;4166251;28;20052;-69
2023/11/24 08:17:33;;;;;;;32.28;21.50;;;;;;;10.82;75.42;93723.19;4193921;28;20098;-70
2023/11/24 08:19:36;;;;;;;27.73;18.65;;;;;;;10.86;75.52;93706.91;4197069;28;20056;-69
2023/11/24 08:21:37;;;;;;;27.53;18.60;;;;;;;10.84;75.15;93706.28;4195708;28;20070;-71
2023/11/24 08:23:39;;;;;;;26.73;17.88;;;;;;;10.85;75.04;93710.53;4190728;28;20064;-68
2023/11/24 08:25:41;;;;;;;30.20;17.75;;;;;;;10.86;75.10;93703.47;4186149;28;20048;-71
2023/11/24 08:27:44;;;;;;;26.90;17.35;;;;;;;10.79;73.97;93694.72;4189842;28;20044;-70
2023/11/24 08:29:46;;;;;;;21.40;16.30;;;;;;;10.76;74.23;93695.13;4193702;28;20051;-71
2023/11/24 08:31:48;;;;;;;18.63;15.35;;;;;;;10.66;73.82;93695.38;4192832;28;20058;-70
2023/11/24 08:33:50;;;;;;;20.52;16.15;;;;;;;10.51;74.17;93684.94;4194440;28;20431;-69
2023/11/24 08:35:52;;;;;;;23.42;16.90;;;;;;;10.22;75.19;93678.72;4189452;28;20498;-70
2023/11/24 08:37:54;;;;;;;31.42;18.63;;;;;;;10.11;76.29;93679.19;4171250;28;20043;-70
2023/11/24 08:39:56;;;;;;;29.27;18.52;;;;;;;10.06;75.76;93678.91;4190663;28;20552;-71
2023/11/24 08:41:57;;;;;;;25.38;17.13;;;;;;;9.99;75.45;93672.78;4190229;28;20187;-70
2023/11/24 08:43:59;;;;;;;32.72;20.05;;;;;;;10.02;76.17;93672.41;4177686;28;20535;-70
2023/11/24 08:46:01;;;;;;;23.67;17.13;;;;;;;10.16;76.06;93670.78;4174801;28;20083;-70
2023/11/24 08:48:04;;;;;;;22.30;16.95;;;;;;;10.23;75.39;93667.25;4191382;28;20045;-70
2023/11/24 08:50:06;;;;;;;23.95;18.10;;;;;;;10.22;75.38;93663.03;4191419;28;20055;-71
2023/11/24 08:52:09;;;;;;;31.80;18.45;;;;;;;10.23;75.55;93661.22;4198004;28;20041;-70
2023/11/24 08:54:11;;;;;;;25.65;17.55;;;;;;;10.32;75.81;93665.38;4198017;28;20072;-71
2023/11/24 08:56:13;;;;;;;30.42;18.02;;;;;;;10.39;75.64;93657.59;4190499;28;20491;-70
2023/11/24 08:58:15;;;;;;;28.15;17.35;;;;;;;10.41;75.06;93642.50;4178122;28;20467;-71
2023/11/24 09:00:17;;;;;;;30.40;18.00;;;;;;;10.39;75.20;93647.13;4175556;28;20487;-74
2023/11/24 09:02:19;;;;;;;26.92;17.63;;;;;;;10.32;74.97;93643.63;4195108;28;20049;-72
2023/11/24 09:04:22;;;;;;;28.92;17.15;;;;;;;10.08;75.36;93640.28;4207207;28;20045;-70
2023/11/24 09:06:25;;;;;;;23.23;17.27;;;;;;;10.02;76.09;93627.91;4192094;28;20384;-71
2023/11/24 09:08:27;;;;;;;23.92;18.75;;;;;;;10.00;76.12;93624.69;4182601;28;20497;-71
2023/11/24 09:10:29;;;;;;;26.58;19.77;;;;;;;10.08;76.82;93632.44;4193831;28;20419;-71
2023/11/24 09:12:31;;;;;;;27.00;18.92;;;;;;;10.19;76.25;93631.16;4195953;28;20053;-70
2023/11/24 09:14:38;;;;;;;25.08;19.13;;;;;;;10.28;76.21;93624.00;4196333;28;20055;-71
2023/11/24 09:16:40;;;;;;;28.85;20.10;;;;;;;10.38;76.17;93622.75;4190900;28;20061;-71
2023/11/24 09:18:42;;;;;;;24.90;19.13;;;;;;;10.34;75.10;93615.47;4196019;28;20036;-70
2023/11/24 09:20:46;;;;;;;36.72;20.30;;;;;;;10.34;75.35;93612.84;4187199;28;20048;-70
2023/11/24 09:22:49;;;;;;;28.70;20.17;;;;;;;10.42;75.63;93615.34;4173374;28;20053;-70
2023/11/24 09:24:51;;;;;;;28.85;21.00;;;;;;;10.48;75.28;93603.34;4194517;28;20059;-71
2023/11/24 09:26:55;;;;;;;26.38;19.75;;;;;;;10.52;75.35;93594.94;4196250;28;20057;-70
2023/11/24 09:28:58;;;;;;;29.80;20.30;;;;;;;10.56;75.32;93597.97;4179016;28;20053;-70